Time;durP1;ratioP1;P1;durP2;ratioP2;P2;SDS_P1;SDS_P2;PMS_P1;PMS_P2;Temp;Humidity;BMP_temperature;BMP_pressure;BME280_temperature;BME280_humidity;BME280_pressure;Samples;Min_cycle;Max_cycle;Signal;HPM_P1;HPM_P2
2024/03/01 00:01:09;;;;;;;10.23;6.15;;;9.20;70.30;;;;;;2340218;55;21906;-66
2024/03/01 00:03:38;;;;;;;10.52;6.87;;;9.20;70.50;;;;;;2339802;55;21075;-65
2024/03/01 00:06:04;;;;;;;11.70;6.50;;;9.20;70.60;;;;;;2319264;54;21170;-64
2024/03/01 00:08:31;;;;;;;9.38;5.82;;;9.20;70.70;;;;;;2331058;54;21015;-66
2024/03/01 00:10:58;;;;;;;11.80;7.03;;;9.10;70.70;;;;;;2322705;54;20963;-66
2024/03/01 00:13:24;;;;;;;11.40;6.60;;;9.10;70.70;;;;;;2341175;55;20947;-65
2024/03/01 00:15:51;;;;;;;12.25;6.60;;;9.10;70.70;;;;;;2339413;54;21271;-64
2024/03/01 00:18:17;;;;;;;14.23;7.22;;;9.10;70.70;;;;;;2586245;53;20995;-65
2024/03/01 00:20:45;;;;;;;12.45;6.87;;;9.10;70.70;;;;;;2547021;53;21043;-65
2024/03/01 00:23:13;;;;;;;11.98;6.45;;;9.00;70.60;;;;;;2307984;54;20972;-65
2024/03/01 00:25:40;;;;;;;10.80;6.28;;;9.00;70.70;;;;;;2307247;54;20983;-66
2024/03/01 00:28:06;;;;;;;11.88;6.65;;;9.00;70.70;;;;;;2310016;54;20979;-65
2024/03/01 00:30:32;;;;;;;12.43;7.12;;;9.00;70.70;;;;;;2538892;54;21007;-65
2024/03/01 00:32:59;;;;;;;11.48;6.20;;;9.00;70.80;;;;;;2310743;54;20967;-65
2024/03/01 00:35:25;;;;;;;11.30;6.05;;;9.00;70.80;;;;;;2537670;54;20963;-65
2024/03/01 00:37:51;;;;;;;10.55;5.93;;;9.00;70.80;;;;;;2538973;54;21292;-65
2024/03/01 00:40:18;;;;;;;11.60;6.90;;;8.90;70.80;;;;;;2306454;54;20955;-64
2024/03/01 00:42:45;;;;;;;14.15;7.47;;;8.90;70.80;;;;;;2308316;54;20959;-64
2024/03/01 00:45:11;;;;;;;11.60;6.78;;;8.90;70.90;;;;;;2307895;54;20915;-66
2024/03/01 00:47:47;;;;;;;12.00;7.47;;;8.90;70.90;;;;;;2546912;54;20954;-65
2024/03/01 00:50:13;;;;;;;11.63;7.40;;;8.90;70.80;;;;;;2309251;54;21002;-64
2024/03/01 00:52:40;;;;;;;11.25;6.87;;;8.90;71.00;;;;;;2307925;55;20943;-65
2024/03/01 00:55:07;;;;;;;14.75;8.45;;;8.90;71.10;;;;;;2311677;54;20954;-66
2024/03/01 00:57:37;;;;;;;12.43;7.50;;;8.90;71.10;;;;;;2316839;54;21059;-66
2024/03/01 01:00:06;;;;;;;15.80;8.38;;;8.90;71.20;;;;;;2339657;54;21082;-65
2024/03/01 01:02:32;;;;;;;12.68;7.00;;;8.90;71.30;;;;;;2586129;53;20932;-64
2024/03/01 01:04:58;;;;;;;11.63;6.90;;;8.90;71.30;;;;;;2339281;55;20931;-66
2024/03/01 01:07:28;;;;;;;12.93;7.10;;;8.90;71.30;;;;;;2560091;53;21469;-64
2024/03/01 01:09:55;;;;;;;12.35;7.30;;;8.90;71.40;;;;;;2335276;54;20935;-65
2024/03/01 01:12:21;;;;;;;11.88;6.95;;;8.90;71.40;;;;;;2317005;54;20908;-65
2024/03/01 01:14:48;;;;;;;12.85;6.70;;;8.90;71.50;;;;;;2339648;54;21444;-65
2024/03/01 01:17:14;;;;;;;13.35;7.50;;;9.00;71.60;;;;;;2339622;55;20908;-64
2024/03/01 01:19:42;;;;;;;12.02;7.18;;;8.90;71.50;;;;;;2340218;55;21267;-64
2024/03/01 01:22:08;;;;;;;17.20;9.18;;;8.90;71.60;;;;;;2585572;53;20975;-65
2024/03/01 01:24:35;;;;;;;12.35;7.37;;;9.00;71.80;;;;;;2340111;55;20999;-65
2024/03/01 01:27:01;;;;;;;13.95;8.00;;;9.00;71.80;;;;;;2339718;55;20943;-65
2024/03/01 01:29:27;;;;;;;17.40;9.57;;;9.00;71.90;;;;;;2340580;55;20951;-66
2024/03/01 01:31:56;;;;;;;13.65;8.10;;;9.00;71.90;;;;;;2329713;54;20979;-65
2024/03/01 01:34:23;;;;;;;12.15;7.90;;;9.00;71.90;;;;;;2571294;53;21003;-65
2024/03/01 01:36:50;;;;;;;11.77;6.97;;;9.00;72.00;;;;;;2586241;53;21557;-66
2024/03/01 01:39:17;;;;;;;13.90;8.48;;;9.00;72.10;;;;;;2583134;53;21284;-65
2024/03/01 01:41:43;;;;;;;14.05;8.07;;;9.10;72.30;;;;;;2340062;55;21394;-65
2024/03/01 01:44:11;;;;;;;14.05;8.63;;;9.10;72.40;;;;;;2339744;54;20993;-64
2024/03/01 01:46:38;;;;;;;14.87;8.73;;;9.10;72.40;;;;;;2586012;53;20943;-65
2024/03/01 01:49:05;;;;;;;14.15;8.43;;;9.10;72.40;;;;;;2339398;54;20971;-65
2024/03/01 01:51:32;;;;;;;17.50;9.80;;;9.20;72.60;;;;;;2339850;55;20963;-65
2024/03/01 01:53:58;;;;;;;16.75;8.93;;;9.20;72.70;;;;;;2585357;53;21643;-65
2024/03/01 01:56:24;;;;;;;22.52;10.65;;;9.20;72.80;;;;;;2340089;54;20999;-66
2024/03/01 01:58:51;;;;;;;20.70;11.48;;;9.30;72.90;;;;;;2585327;53;20916;-64
2024/03/01 02:01:18;;;;;;;18.67;9.77;;;9.30;73.10;;;;;;2339403;53;21006;-65
2024/03/01 02:03:44;;;;;;;19.17;10.57;;;9.30;73.40;;;;;;2340049;54;20935;-65
2024/03/01 02:06:11;;;;;;;19.15;10.20;;;9.40;73.70;;;;;;2339340;54;21334;-66
2024/03/01 02:08:40;;;;;;;20.35;10.57;;;9.50;74.00;;;;;;2339704;55;21023;-65
2024/03/01 02:11:10;;;;;;;18.83;10.27;;;9.60;74.20;;;;;;2585060;53;20923;-64
2024/03/01 02:13:41;;;;;;;20.65;9.73;;;9.60;74.30;;;;;;2340154;54;21275;-65
2024/03/01 02:16:07;;;;;;;21.02;11.32;;;9.70;74.50;;;;;;2339980;55;20955;-65
2024/03/01 02:18:35;;;;;;;22.67;10.85;;;9.80;74.50;;;;;;2339692;54;20939;-65
2024/03/01 02:21:10;;;;;;;20.42;11.55;;;9.90;74.70;;;;;;2339890;55;20955;-66
2024/03/01 02:23:38;;;;;;;19.55;10.77;;;9.90;74.60;;;;;;2338550;54;21058;-64
2024/03/01 02:26:05;;;;;;;19.50;10.98;;;10.00;73.70;;;;;;2339754;55;20963;-65
2024/03/01 02:28:41;;;;;;;20.25;11.23;;;10.10;73.80;;;;;;2340267;54;21734;-66
2024/03/01 02:31:08;;;;;;;20.40;11.75;;;10.20;73.80;;;;;;2339770;54;20995;-65
2024/03/01 02:33:35;;;;;;;20.52;10.60;;;10.20;73.80;;;;;;2340157;54;20991;-65
2024/03/01 02:36:02;;;;;;;17.85;10.25;;;10.30;73.80;;;;;;2328989;54;20989;-66
2024/03/01 02:38:28;;;;;;;20.70;10.93;;;10.40;73.80;;;;;;2571363;53;21247;-65
2024/03/01 02:40:54;;;;;;;17.87;10.57;;;10.50;73.80;;;;;;2339737;55;21442;-66
2024/03/01 02:43:22;;;;;;;18.70;10.68;;;10.50;73.70;;;;;;2548276;53;20981;-65
2024/03/01 02:45:52;;;;;;;15.65;9.10;;;10.60;73.70;;;;;;2303643;55;21313;-66
2024/03/01 02:48:18;;;;;;;18.77;10.23;;;10.60;73.60;;;;;;2546304;54;21140;-66
2024/03/01 02:50:46;;;;;;;17.85;9.55;;;10.80;73.80;;;;;;2307983;56;21075;-66
2024/03/01 02:53:13;;;;;;;17.87;10.02;;;10.80;73.60;;;;;;2307956;56;20979;-65
2024/03/01 02:55:39;;;;;;;15.45;9.15;;;10.80;73.50;;;;;;2307037;56;20951;-66
2024/03/01 02:58:05;;;;;;;20.10;10.93;;;10.80;73.50;;;;;;2307268;54;21145;-65
2024/03/01 03:00:34;;;;;;;17.48;10.13;;;10.90;73.50;;;;;;2315634;54;20998;-64
2024/03/01 03:03:00;;;;;;;18.00;9.23;;;10.90;73.40;;;;;;2328476;54;20963;-65
2024/03/01 03:05:26;;;;;;;15.98;8.88;;;11.00;73.40;;;;;;2327074;54;21461;-64
2024/03/01 03:07:55;;;;;;;14.85;8.57;;;11.00;73.30;;;;;;2340075;55;21023;-66
2024/03/01 03:10:26;;;;;;;13.60;7.50;;;11.10;73.30;;;;;;2553057;53;21322;-65
2024/03/01 03:12:52;;;;;;;12.98;7.40;;;11.10;73.20;;;;;;2321911;55;20988;-65
2024/03/01 03:15:18;;;;;;;13.43;7.45;;;11.20;73.30;;;;;;2325257;54;20919;-65
2024/03/01 03:17:45;;;;;;;14.07;8.57;;;11.20;73.20;;;;;;2585858;53;20948;-66
2024/03/01 03:20:11;;;;;;;13.77;7.40;;;11.20;73.10;;;;;;2586073;53;20951;-65
2024/03/01 03:22:38;;;;;;;15.05;8.00;;;11.30;73.10;;;;;;2340342;54;20989;-66
2024/03/01 03:25:05;;;;;;;12.93;8.00;;;11.30;73.00;;;;;;2586162;53;21000;-65
2024/03/01 03:27:33;;;;;;;12.93;7.45;;;11.30;72.80;;;;;;2553107;53;20956;-65
2024/03/01 03:29:59;;;;;;;11.60;6.35;;;11.40;72.80;;;;;;2586024;53;21460;-64
2024/03/01 03:32:27;;;;;;;8.85;5.47;;;11.40;72.70;;;;;;2339743;54;21015;-66
2024/03/01 03:34:53;;;;;;;9.80;5.28;;;11.40;72.60;;;;;;2340079;55;21180;-65
2024/03/01 03:37:20;;;;;;;11.30;6.22;;;11.50;73.40;;;;;;2340731;54;21493;-66
2024/03/01 03:39:47;;;;;;;8.70;5.07;;;11.50;72.60;;;;;;2331697;54;23509;-65
2024/03/01 03:42:13;;;;;;;10.27;5.72;;;11.50;72.50;;;;;;2322775;54;21440;-65
2024/03/01 03:44:40;;;;;;;9.95;5.47;;;11.50;72.40;;;;;;2315914;54;21008;-66
2024/03/01 03:47:06;;;;;;;9.52;5.97;;;11.60;72.30;;;;;;2586091;53;21487;-65
2024/03/01 03:49:32;;;;;;;9.30;4.97;;;11.60;72.40;;;;;;2339777;54;21015;-65
2024/03/01 03:51:59;;;;;;;9.55;5.75;;;11.60;72.30;;;;;;2338562;55;20943;-65
2024/03/01 03:54:26;;;;;;;9.98;5.72;;;11.60;72.20;;;;;;2340112;55;20955;-66
2024/03/01 03:56:53;;;;;;;9.68;5.55;;;11.50;72.00;;;;;;2340012;55;21872;-66
2024/03/01 03:59:19;;;;;;;9.32;5.35;;;11.70;72.20;;;;;;2586183;53;20916;-65
2024/03/01 04:01:45;;;;;;;9.25;5.32;;;11.70;72.20;;;;;;2572509;53;21797;-65
2024/03/01 04:04:12;;;;;;;9.02;5.30;;;11.70;72.20;;;;;;2324235;54;21088;-65
2024/03/01 04:06:38;;;;;;;10.23;5.80;;;11.70;72.10;;;;;;2339158;54;20963;-65
2024/03/01 04:09:10;;;;;;;8.10;4.28;;;11.70;72.00;;;;;;2339651;54;21079;-66
2024/03/01 04:11:40;;;;;;;8.15;4.60;;;11.70;72.00;;;;;;2585715;53;21006;-65
2024/03/01 04:14:09;;;;;;;8.07;4.80;;;11.80;72.00;;;;;;2339931;55;20947;-66
2024/03/01 04:16:35;;;;;;;8.32;4.60;;;11.80;72.00;;;;;;2339414;54;21012;-65
2024/03/01 04:19:02;;;;;;;8.68;5.32;;;11.70;71.90;;;;;;2340005;54;21428;-65
2024/03/01 04:21:29;;;;;;;8.70;4.80;;;11.80;71.90;;;;;;2330810;54;20960;-65
2024/03/01 04:23:55;;;;;;;6.97;4.43;;;11.80;71.90;;;;;;2326247;54;21019;-65
2024/03/01 04:26:22;;;;;;;8.18;4.32;;;11.80;71.80;;;;;;2339711;55;20972;-66
2024/03/01 04:28:49;;;;;;;10.77;5.95;;;11.80;71.80;;;;;;2339658;55;20952;-65
2024/03/01 04:31:16;;;;;;;9.18;4.95;;;11.80;71.60;;;;;;2339954;55;20983;-65
2024/03/01 04:33:42;;;;;;;9.85;5.32;;;11.80;71.50;;;;;;2338842;54;21448;-66
2024/03/01 04:36:10;;;;;;;8.50;4.85;;;11.80;71.60;;;;;;2339689;54;21758;-66
2024/03/01 04:38:38;;;;;;;7.53;4.75;;;11.80;71.60;;;;;;2338263;54;21013;-66
2024/03/01 04:41:04;;;;;;;9.20;5.37;;;11.80;71.50;;;;;;2338785;54;20968;-66
2024/03/01 04:43:30;;;;;;;10.27;6.10;;;11.80;71.50;;;;;;2586150;53;21940;-65
2024/03/01 04:45:57;;;;;;;9.60;5.65;;;11.80;71.40;;;;;;2339956;54;21362;-65
2024/03/01 04:48:23;;;;;;;9.02;5.55;;;11.80;71.40;;;;;;2584254;53;21231;-65
2024/03/01 04:50:50;;;;;;;10.07;5.20;;;11.80;71.40;;;;;;2585479;53;20947;-66
2024/03/01 04:53:16;;;;;;;8.27;5.25;;;11.80;71.50;;;;;;2585601;53;20956;-65
2024/03/01 04:55:44;;;;;;;8.25;5.22;;;11.80;71.40;;;;;;2331330;54;20979;-65
2024/03/01 04:58:10;;;;;;;9.98;5.30;;;11.80;71.40;;;;;;2323560;54;21314;-66
2024/03/01 05:00:37;;;;;;;10.35;5.85;;;11.80;71.50;;;;;;2340062;54;21453;-66
2024/03/01 05:03:07;;;;;;;9.00;5.53;;;11.80;71.40;;;;;;2585048;53;21441;-65
2024/03/01 05:05:34;;;;;;;9.40;5.80;;;11.80;71.40;;;;;;2342830;54;20935;-65
2024/03/01 05:08:00;;;;;;;9.35;5.35;;;11.80;71.40;;;;;;2553522;53;21692;-66
2024/03/01 05:10:26;;;;;;;8.93;5.35;;;11.80;71.30;;;;;;2339416;55;21441;-66
2024/03/01 05:12:53;;;;;;;11.82;5.35;;;11.80;71.30;;;;;;2584073;53;21035;-65
2024/03/01 05:15:19;;;;;;;8.55;4.70;;;11.80;71.40;;;;;;2564091;53;20971;-66
2024/03/01 05:17:46;;;;;;;9.68;4.82;;;11.80;71.30;;;;;;2330339;54;21058;-65
2024/03/01 05:20:13;;;;;;;10.48;5.12;;;11.80;71.20;;;;;;2585680;53;20955;-66
2024/03/01 05:22:41;;;;;;;8.38;3.87;;;11.80;71.20;;;;;;2338453;54;21530;-65
2024/03/01 05:25:17;;;;;;;10.07;4.22;;;11.80;71.20;;;;;;2582281;53;20944;-66
2024/03/01 05:27:44;;;;;;;9.63;4.60;;;11.80;71.30;;;;;;2574038;53;21123;-65
2024/03/01 05:30:12;;;;;;;8.55;5.18;;;11.90;71.40;;;;;;2321377;54;20940;-65
2024/03/01 05:32:44;;;;;;;7.75;4.97;;;11.90;71.30;;;;;;2338931;54;20976;-65
2024/03/01 05:35:12;;;;;;;;;;;11.90;71.00;;;;;;2589030;53;21519;-65
2024/03/01 05:37:38;;;;;;;7.22;4.30;;;11.90;69.60;;;;;;2338679;55;20087;-64
2024/03/01 05:40:05;;;;;;;7.43;4.28;;;11.90;71.40;;;;;;2338178;54;21840;-66
2024/03/01 05:42:31;;;;;;;8.15;4.70;;;11.90;71.40;;;;;;2339035;55;21089;-66
2024/03/01 05:44:59;;;;;;;7.68;4.60;;;11.90;71.40;;;;;;2585678;53;20931;-65
2024/03/01 05:47:25;;;;;;;10.90;4.97;;;12.00;71.50;;;;;;2586147;53;21722;-65
2024/03/01 05:49:51;;;;;;;8.52;4.93;;;11.90;71.40;;;;;;2586016;53;21015;-66
2024/03/01 05:52:18;;;;;;;7.80;4.78;;;12.00;71.50;;;;;;2339515;54;22020;-65
2024/03/01 05:54:45;;;;;;;6.75;4.03;;;12.00;71.60;;;;;;2585319;53;20933;-65
2024/03/01 05:57:11;;;;;;;7.53;4.15;;;12.00;71.60;;;;;;2339715;54;21204;-66
2024/03/01 05:59:38;;;;;;;8.23;4.62;;;12.00;71.60;;;;;;2339832;55;21444;-66
2024/03/01 06:02:04;;;;;;;8.93;5.22;;;12.00;71.60;;;;;;2340163;54;20924;-65
2024/03/01 06:04:31;;;;;;;9.00;5.10;;;12.10;71.70;;;;;;2340550;54;20976;-65
2024/03/01 06:06:57;;;;;;;10.18;5.82;;;12.10;71.70;;;;;;2339549;54;21047;-66
2024/03/01 06:09:24;;;;;;;10.45;6.10;;;12.10;71.70;;;;;;2339818;54;20974;-65
2024/03/01 06:11:51;;;;;;;9.40;5.72;;;12.10;71.60;;;;;;2340338;55;20939;-65
2024/03/01 06:14:20;;;;;;;7.85;4.55;;;12.20;71.70;;;;;;2340216;55;21277;-66
2024/03/01 06:16:47;;;;;;;8.55;4.60;;;12.20;71.70;;;;;;2340339;54;20995;-66
2024/03/01 06:19:14;;;;;;;9.15;5.70;;;12.20;71.70;;;;;;2339802;54;21054;-66
2024/03/01 06:21:41;;;;;;;7.75;4.60;;;12.20;71.60;;;;;;2339622;54;20948;-66
2024/03/01 06:24:07;;;;;;;7.68;4.40;;;12.20;71.50;;;;;;2339132;54;21015;-65
2024/03/01 06:26:34;;;;;;;7.55;4.95;;;12.20;71.50;;;;;;2585578;53;20964;-66
2024/03/01 06:29:01;;;;;;;9.18;5.78;;;12.20;71.50;;;;;;2584804;53;20943;-65
2024/03/01 06:31:29;;;;;;;9.85;5.07;;;12.20;71.50;;;;;;2338845;54;20946;-66
2024/03/01 06:33:55;;;;;;;9.68;5.43;;;12.20;72.10;;;;;;2337031;54;20951;-66
2024/03/01 06:36:23;;;;;;;10.65;6.32;;;12.20;71.40;;;;;;2338817;54;20947;-65
2024/03/01 06:38:51;;;;;;;7.43;4.85;;;12.20;71.40;;;;;;2585122;53;21232;-65
2024/03/01 06:41:17;;;;;;;9.00;5.60;;;12.20;71.40;;;;;;2585492;53;20983;-64
2024/03/01 06:43:43;;;;;;;9.10;5.10;;;12.20;71.40;;;;;;2584368;53;21262;-65
2024/03/01 06:46:10;;;;;;;8.52;5.65;;;12.30;71.50;;;;;;2338892;54;21018;-66
2024/03/01 06:48:39;;;;;;;9.23;4.97;;;12.20;71.40;;;;;;2585269;53;20935;-66
2024/03/01 06:51:08;;;;;;;10.60;5.40;;;12.30;71.50;;;;;;2330139;54;20928;-65
2024/03/01 06:53:34;;;;;;;8.95;5.22;;;12.30;71.50;;;;;;2545984;53;20989;-66
2024/03/01 06:56:04;;;;;;;8.85;5.43;;;12.30;71.40;;;;;;2332179;54;21392;-65
2024/03/01 06:58:30;;;;;;;8.23;4.47;;;12.30;71.20;;;;;;2339724;54;20932;-64
2024/03/01 07:00:56;;;;;;;7.93;4.82;;;12.30;71.30;;;;;;2339842;54;20935;-66
2024/03/01 07:03:23;;;;;;;6.87;4.62;;;12.30;71.30;;;;;;2584465;53;21483;-66
2024/03/01 07:05:49;;;;;;;7.53;4.37;;;12.30;71.20;;;;;;2339838;54;20935;-65
2024/03/01 07:08:15;;;;;;;7.40;4.62;;;12.30;71.20;;;;;;2339796;55;20991;-66
2024/03/01 07:10:42;;;;;;;7.55;4.68;;;12.30;71.20;;;;;;2336117;54;20972;-65
2024/03/01 07:13:08;;;;;;;7.32;4.55;;;12.30;71.30;;;;;;2320818;54;21278;-66
2024/03/01 07:15:34;;;;;;;10.13;4.95;;;12.30;71.40;;;;;;2585944;53;20967;-66
2024/03/01 07:18:01;;;;;;;6.90;4.35;;;12.30;71.40;;;;;;2318489;54;20944;-66
2024/03/01 07:20:27;;;;;;;7.70;4.87;;;12.30;71.40;;;;;;2338043;54;20948;-65
2024/03/01 07:22:55;;;;;;;7.55;4.35;;;12.40;71.50;;;;;;2340392;54;20960;-65
2024/03/01 07:25:21;;;;;;;8.50;4.82;;;12.40;71.60;;;;;;2340709;54;20971;-66
2024/03/01 07:27:47;;;;;;;7.40;4.62;;;12.40;71.80;;;;;;2313780;54;21023;-66
2024/03/01 07:30:14;;;;;;;9.27;5.28;;;12.40;71.70;;;;;;2339869;55;20931;-66
2024/03/01 07:32:43;;;;;;;8.93;5.32;;;12.50;71.90;;;;;;2586368;53;21675;-66
2024/03/01 07:35:09;;;;;;;9.25;4.85;;;12.40;71.80;;;;;;2585592;53;20956;-65
2024/03/01 07:37:36;;;;;;;9.82;5.07;;;12.50;71.90;;;;;;2586031;53;20922;-65
2024/03/01 07:40:04;;;;;;;9.82;5.43;;;12.40;71.80;;;;;;2340285;54;20999;-66
2024/03/01 07:42:30;;;;;;;8.73;5.22;;;12.50;71.90;;;;;;2339623;54;20975;-66
2024/03/01 07:44:57;;;;;;;8.45;5.18;;;12.60;71.90;;;;;;2339560;54;20935;-66
2024/03/01 07:47:29;;;;;;;8.82;5.03;;;12.60;71.90;;;;;;2340329;54;20932;-66
2024/03/01 07:49:56;;;;;;;8.93;5.25;;;12.70;72.10;;;;;;2340148;55;21429;-65
2024/03/01 07:52:27;;;;;;;8.95;5.50;;;12.70;72.00;;;;;;2585894;53;20960;-66
2024/03/01 07:54:53;;;;;;;9.27;6.12;;;12.70;71.70;;;;;;2585415;53;20955;-66
2024/03/01 07:57:21;;;;;;;9.98;5.82;;;12.70;71.90;;;;;;2340128;54;20932;-65
2024/03/01 07:59:48;;;;;;;8.75;5.40;;;12.70;71.80;;;;;;2339906;54;20919;-65
2024/03/01 08:02:14;;;;;;;8.63;5.62;;;12.80;72.10;;;;;;2585966;53;21567;-66
2024/03/01 08:04:40;;;;;;;9.77;5.80;;;12.80;72.10;;;;;;2340070;55;20952;-65
2024/03/01 08:07:12;;;;;;;10.63;5.68;;;12.80;72.10;;;;;;2340385;55;21349;-66
2024/03/01 08:09:40;;;;;;;10.45;5.68;;;12.80;71.90;;;;;;2586283;53;20992;-67
2024/03/01 08:12:19;;;;;;;9.70;5.60;;;12.90;72.10;;;;;;2340637;54;20927;-66
2024/03/01 08:14:45;;;;;;;9.73;6.22;;;12.90;71.50;;;;;;2339755;54;20995;-66
2024/03/01 08:17:12;;;;;;;9.32;5.47;;;12.90;71.90;;;;;;2340333;54;20951;-66
2024/03/01 08:19:44;;;;;;;9.35;5.60;;;12.90;71.90;;;;;;2340476;55;21010;-66
2024/03/01 08:22:14;;;;;;;;;;;12.90;71.80;;;;;;2344562;54;21496;-65
2024/03/01 08:24:41;;;;;;;10.95;6.35;;;13.00;70.50;;;;;;2339540;55;20115;-66
2024/03/01 08:27:08;;;;;;;8.25;5.25;;;13.00;72.10;;;;;;2586084;53;20927;-65
2024/03/01 08:29:35;;;;;;;10.82;5.80;;;13.10;72.30;;;;;;2585216;53;20971;-66
2024/03/01 08:32:05;;;;;;;9.30;5.97;;;13.10;72.40;;;;;;2585029;53;21505;-66
2024/03/01 08:34:52;;;;;;;8.38;5.90;;;13.10;72.30;;;;;;2340124;54;25738;-66
2024/03/01 08:37:22;;;;;;;10.57;6.55;;;13.10;71.50;;;;;;2586146;53;20927;-66
2024/03/01 08:39:50;;;;;;;9.45;5.95;;;13.20;72.00;;;;;;2339788;55;20900;-66
2024/03/01 08:42:16;;;;;;;11.27;5.87;;;13.20;72.20;;;;;;2340515;54;21362;-66
2024/03/01 08:44:59;;;;;;;9.90;5.78;;;13.30;72.30;;;;;;2340060;55;20947;-64
2024/03/01 08:47:27;;;;;;;11.20;6.20;;;13.30;71.40;;;;;;2340516;54;20974;-66
2024/03/01 08:50:36;;;;;;;7.47;5.03;;;13.30;72.00;;;;;;2339912;54;20979;-66
2024/03/01 08:53:03;;;;;;;8.43;5.15;;;13.30;71.20;;;;;;2585422;53;21390;-65
2024/03/01 08:55:38;;;;;;;9.60;5.53;;;13.40;72.30;;;;;;2585288;53;20994;-66
2024/03/01 08:58:14;;;;;;;12.32;5.87;;;13.40;71.80;;;;;;2339462;54;21835;-66
2024/03/01 09:00:49;;;;;;;9.07;5.05;;;13.40;72.00;;;;;;2585338;53;21104;-65
2024/03/01 09:03:23;;;;;;;7.97;5.12;;;13.50;72.20;;;;;;2340237;55;21018;-65
2024/03/01 09:05:53;;;;;;;8.95;5.00;;;13.50;72.60;;;;;;2328374;54;20948;-67
2024/03/01 09:08:30;;;;;;;11.30;5.87;;;13.50;72.40;;;;;;2330574;54;21775;-65
2024/03/01 09:10:57;;;;;;;9.85;6.43;;;13.60;72.50;;;;;;2556277;53;20912;-66
2024/03/01 09:13:26;;;;;;;11.68;6.93;;;13.60;72.70;;;;;;2321499;54;21014;-66
2024/03/01 09:15:54;;;;;;;12.35;8.13;;;13.70;72.70;;;;;;2580089;53;20947;-66
2024/03/01 09:19:02;;;;;;;10.52;6.70;;;13.70;72.70;;;;;;2340682;55;21657;-66
2024/03/01 09:21:47;;;;;;;8.93;5.50;;;13.80;71.30;;;;;;2339706;54;20943;-66
2024/03/01 09:24:15;;;;;;;9.45;5.80;;;13.80;71.90;;;;;;2339716;54;21100;-65
2024/03/01 09:26:42;;;;;;;11.23;6.12;;;13.90;72.70;;;;;;2340478;54;20963;-66
2024/03/01 09:29:17;;;;;;;9.10;5.60;;;13.90;72.40;;;;;;2317894;54;21232;-66
2024/03/01 09:31:44;;;;;;;7.97;5.10;;;13.90;72.10;;;;;;2339503;54;20956;-67
2024/03/01 09:34:12;;;;;;;8.18;4.35;;;14.00;72.40;;;;;;2340028;54;21385;-66
2024/03/01 09:36:38;;;;;;;6.93;4.62;;;14.00;72.50;;;;;;2339662;54;20916;-65
2024/03/01 09:39:05;;;;;;;7.60;4.55;;;14.00;72.50;;;;;;2339033;55;21039;-66
2024/03/01 09:43:10;;;;;;;8.23;5.07;;;14.00;72.50;;;;;;2585662;53;21793;-66
2024/03/01 09:45:51;;;;;;;6.10;3.97;;;14.10;71.70;;;;;;2339858;55;21007;-67
2024/03/01 09:52:01;;;;;;;7.60;4.62;;;14.20;72.50;;;;;;2316505;55;20947;-66
2024/03/01 09:54:36;;;;;;;9.45;4.55;;;14.30;71.20;;;;;;2586094;53;20975;-65
2024/03/01 09:57:43;;;;;;;8.65;5.57;;;14.30;72.20;;;;;;2340294;55;20967;-66
2024/03/01 10:00:20;;;;;;;8.10;5.10;;;14.30;71.60;;;;;;2340115;55;20920;-65
2024/03/01 10:03:13;;;;;;;8.52;5.37;;;14.40;72.60;;;;;;2310219;54;20947;-66
2024/03/01 10:07:37;;;;;;;8.68;4.97;;;14.50;72.50;;;;;;2511161;53;20990;-66
2024/03/01 10:10:36;;;;;;;9.48;5.95;;;14.60;70.40;;;;;;2307583;55;20971;-66
2024/03/01 10:20:04;;;;;;;9.38;5.20;;;14.60;71.00;;;;;;2308015;54;21448;-66
2024/03/01 10:22:43;;;;;;;6.32;3.92;;;14.80;70.90;;;;;;2308105;54;20971;-66
2024/03/01 10:25:43;;;;;;;7.30;4.30;;;14.80;71.90;;;;;;2547129;54;21003;-66
2024/03/01 10:31:25;;;;;;;7.37;4.20;;;14.80;71.00;;;;;;2547156;54;20983;-66
2024/03/01 10:35:25;;;;;;;6.65;3.90;;;14.80;70.30;;;;;;2546699;54;20996;-65
2024/03/01 10:38:20;;;;;;;6.32;3.97;;;14.90;70.10;;;;;;2307913;54;21671;-66
2024/03/01 10:41:07;;;;;;;6.95;4.55;;;14.90;70.50;;;;;;2299109;54;21027;-66
2024/03/01 10:43:59;;;;;;;6.78;4.30;;;14.90;71.00;;;;;;2298827;54;20945;-66
2024/03/01 10:47:47;;;;;;;6.05;3.45;;;14.90;70.60;;;;;;2298972;54;21028;-67
2024/03/01 10:50:27;;;;;;;6.80;3.78;;;14.90;69.70;;;;;;2535696;54;20892;-66
2024/03/01 10:53:29;;;;;;;7.40;4.47;;;14.90;70.70;;;;;;2534472;54;20924;-66
2024/03/01 10:56:03;;;;;;;6.62;4.07;;;14.80;70.90;;;;;;2298689;54;20959;-66
2024/03/01 10:58:45;;;;;;;5.70;3.70;;;14.90;71.10;;;;;;2298349;54;21074;-66
2024/03/01 11:04:33;;;;;;;6.37;4.03;;;14.90;70.40;;;;;;2298744;54;26414;-66
2024/03/01 11:07:14;;;;;;;8.52;3.70;;;14.80;70.60;;;;;;2302792;54;20969;-66
2024/03/01 11:10:04;;;;;;;5.97;3.72;;;14.80;70.10;;;;;;2525482;54;21063;-65
2024/03/01 11:12:39;;;;;;;6.50;4.12;;;14.80;70.30;;;;;;2298108;54;20984;-66
2024/03/01 11:15:15;;;;;;;7.78;4.75;;;14.80;70.50;;;;;;2547528;53;21015;-65
2024/03/01 11:17:43;;;;;;;8.68;4.72;;;14.70;69.80;;;;;;2546766;54;21015;-66
2024/03/01 11:20:22;;;;;;;7.20;4.15;;;14.70;70.50;;;;;;2307912;54;21441;-66
2024/03/01 11:24:29;;;;;;;6.15;3.70;;;14.70;70.10;;;;;;2554886;53;20989;-66
2024/03/01 11:26:56;;;;;;;8.18;3.35;;;14.60;70.30;;;;;;2324645;54;20906;-66
2024/03/01 11:29:59;;;;;;;7.78;3.35;;;14.60;71.10;;;;;;2557764;53;20951;-66
2024/03/01 11:32:26;;;;;;;5.30;3.10;;;14.60;69.90;;;;;;2536271;54;21627;-66
2024/03/01 11:35:15;;;;;;;6.00;3.50;;;14.60;71.40;;;;;;2535485;54;21484;-66
2024/03/01 11:38:03;;;;;;;5.75;3.25;;;14.60;70.20;;;;;;2298856;54;20979;-66
2024/03/01 11:43:15;;;;;;;5.10;3.28;;;14.60;70.60;;;;;;2536161;54;20951;-65
2024/03/01 11:46:13;;;;;;;4.25;2.58;;;14.60;69.70;;;;;;2299019;54;20960;-66
2024/03/01 11:49:05;;;;;;;5.05;2.97;;;14.50;69.70;;;;;;2291395;54;21757;-66
2024/03/01 11:53:32;;;;;;;4.45;2.42;;;14.50;70.90;;;;;;2279908;55;20914;-65
2024/03/01 11:56:35;;;;;;;4.12;1.95;;;14.50;70.50;;;;;;2325441;54;20944;-66
2024/03/01 11:59:43;;;;;;;3.53;1.80;;;14.50;69.80;;;;;;2586032;53;21036;-66
2024/03/01 12:02:23;;;;;;;2.55;1.12;;;14.40;69.80;;;;;;2340178;54;20996;-66
2024/03/01 12:06:32;;;;;;;3.08;1.37;;;14.40;70.60;;;;;;2339861;54;20952;-66
2024/03/01 12:13:41;;;;;;;1.83;0.85;;;14.40;69.50;;;;;;2552559;53;20966;-66
2024/03/01 12:16:20;;;;;;;2.45;1.23;;;14.40;69.20;;;;;;2585995;53;21372;-66
2024/03/01 12:18:50;;;;;;;3.83;1.33;;;14.30;70.00;;;;;;2339274;54;21056;-66
2024/03/01 12:21:25;;;;;;;2.78;1.27;;;14.30;70.40;;;;;;2586326;53;21221;-65
2024/03/01 12:24:07;;;;;;;2.95;1.10;;;14.30;70.20;;;;;;2331928;54;21705;-67
2024/03/01 12:26:40;;;;;;;2.17;1.02;;;14.30;69.70;;;;;;2306288;55;21057;-65
2024/03/01 12:32:33;;;;;;;4.22;1.02;;;14.30;70.40;;;;;;2584430;53;21763;-67
2024/03/01 12:35:31;;;;;;;2.92;0.90;;;14.20;69.60;;;;;;2307826;54;21039;-65
2024/03/01 12:38:29;;;;;;;2.25;0.80;;;14.30;70.30;;;;;;2307208;54;20961;-65
2024/03/01 12:43:33;;;;;;;2.22;0.95;;;14.30;70.00;;;;;;2307608;54;20980;-66
2024/03/01 12:50:19;;;;;;;1.70;0.70;;;14.30;71.00;;;;;;2283838;54;21012;-66
2024/03/01 12:54:19;;;;;;;2.30;0.88;;;14.30;69.20;;;;;;2306406;54;21460;-65
2024/03/01 12:57:02;;;;;;;3.05;1.10;;;14.40;70.80;;;;;;2309816;54;20974;-66
2024/03/01 12:59:37;;;;;;;;;;;14.40;71.70;;;;;;2548783;54;21031;-65
2024/03/01 13:03:43;;;;;;;1.67;0.70;;;14.50;69.10;;;;;;2303357;54;20112;-66
2024/03/01 13:06:09;;;;;;;2.50;0.88;;;14.50;68.90;;;;;;2546584;54;20951;-66
2024/03/01 13:08:39;;;;;;;1.98;0.73;;;14.50;71.10;;;;;;2308590;54;21247;-66
2024/03/01 13:11:05;;;;;;;1.40;0.60;;;14.60;71.00;;;;;;2307073;54;21744;-66
2024/03/01 13:13:32;;;;;;;1.92;0.70;;;14.50;70.80;;;;;;2308461;54;21512;-65
2024/03/01 13:16:10;;;;;;;1.80;0.70;;;14.60;70.80;;;;;;2308007;54;20988;-66
2024/03/01 13:19:13;;;;;;;2.22;0.88;;;14.60;69.60;;;;;;2307889;54;21532;-65
2024/03/01 13:22:06;;;;;;;2.08;0.98;;;14.60;69.10;;;;;;2326569;54;21252;-66
2024/03/01 13:25:00;;;;;;;1.62;0.70;;;14.70;69.00;;;;;;2579293;53;20973;-65
2024/03/01 13:28:27;;;;;;;1.75;0.70;;;14.70;69.00;;;;;;2557777;53;20979;-66
2024/03/01 13:30:57;;;;;;;1.52;0.70;;;14.70;68.00;;;;;;2334173;54;20968;-66
2024/03/01 13:33:38;;;;;;;1.90;0.77;;;14.70;70.20;;;;;;2335689;54;20965;-65
2024/03/01 13:36:23;;;;;;;1.30;0.62;;;14.80;70.10;;;;;;2309295;54;21241;-66
2024/03/01 13:40:50;;;;;;;1.77;0.77;;;14.80;70.60;;;;;;2579328;53;21315;-66
2024/03/01 13:43:23;;;;;;;2.28;0.80;;;14.80;68.30;;;;;;2334085;54;21024;-66
2024/03/01 13:46:03;;;;;;;1.42;0.60;;;14.90;70.50;;;;;;2328734;54;20978;-66
2024/03/01 13:48:32;;;;;;;2.50;0.70;;;14.90;70.40;;;;;;2556858;53;20996;-66
2024/03/01 13:51:00;;;;;;;1.58;0.70;;;15.00;70.50;;;;;;2334931;54;21033;-66
2024/03/01 13:53:27;;;;;;;2.20;0.80;;;14.90;70.50;;;;;;2307597;54;21017;-66
2024/03/01 13:55:54;;;;;;;1.55;0.50;;;15.00;70.50;;;;;;2578069;53;20961;-66